sensor_id;sensor_type;location;lat;lon;timestamp;P1;durP1;ratioP1;P2;durP2;ratioP2
26502;SDS011;14177;51.520;6.764;2023-12-20T00:00:30;15.07;;;7.70;;
26502;SDS011;14177;51.520;6.764;2023-12-20T00:02:57;17.20;;;8.25;;
26502;SDS011;14177;51.520;6.764;2023-12-20T00:05:25;18.13;;;9.07;;
26502;SDS011;14177;51.520;6.764;2023-12-20T00:07:52;16.08;;;8.38;;
26502;SDS011;14177;51.520;6.764;2023-12-20T00:10:20;18.80;;;8.93;;
26502;SDS011;14177;51.520;6.764;2023-12-20T00:12:47;16.60;;;7.40;;
26502;SDS011;14177;51.520;6.764;2023-12-20T00:15:14;16.10;;;7.30;;
26502;SDS011;14177;51.520;6.764;2023-12-20T00:17:41;15.43;;;7.97;;
26502;SDS011;14177;51.520;6.764;2023-12-20T00:20:09;14.18;;;7.10;;
26502;SDS011;14177;51.520;6.764;2023-12-20T00:22:36;12.52;;;6.93;;
26502;SDS011;14177;51.520;6.764;2023-12-20T00:25:03;15.45;;;7.72;;
26502;SDS011;14177;51.520;6.764;2023-12-20T00:27:31;14.35;;;7.28;;
26502;SDS011;14177;51.520;6.764;2023-12-20T00:29:58;17.20;;;7.35;;
26502;SDS011;14177;51.520;6.764;2023-12-20T00:32:25;16.15;;;7.20;;
26502;SDS011;14177;51.520;6.764;2023-12-20T00:34:52;15.07;;;7.45;;
26502;SDS011;14177;51.520;6.764;2023-12-20T00:37:19;18.50;;;7.15;;
26502;SDS011;14177;51.520;6.764;2023-12-20T00:39:46;17.13;;;7.50;;
26502;SDS011;14177;51.520;6.764;2023-12-20T00:42:13;14.27;;;6.40;;
26502;SDS011;14177;51.520;6.764;2023-12-20T00:44:40;14.02;;;6.03;;
26502;SDS011;14177;51.520;6.764;2023-12-20T00:47:07;13.85;;;6.47;;
26502;SDS011;14177;51.520;6.764;2023-12-20T00:49:34;13.02;;;5.82;;
26502;SDS011;14177;51.520;6.764;2023-12-20T00:52:01;14.77;;;6.07;;
26502;SDS011;14177;51.520;6.764;2023-12-20T00:54:28;14.70;;;6.43;;
26502;SDS011;14177;51.520;6.764;2023-12-20T00:56:57;10.40;;;5.47;;
26502;SDS011;14177;51.520;6.764;2023-12-20T00:59:23;9.93;;;5.25;;
26502;SDS011;14177;51.520;6.764;2023-12-20T01:01:50;11.93;;;6.13;;
26502;SDS011;14177;51.520;6.764;2023-12-20T01:04:17;14.93;;;6.07;;
26502;SDS011;14177;51.520;6.764;2023-12-20T01:06:44;11.10;;;5.68;;
26502;SDS011;14177;51.520;6.764;2023-12-20T01:09:12;14.95;;;5.10;;
26502;SDS011;14177;51.520;6.764;2023-12-20T01:11:38;13.95;;;4.70;;
26502;SDS011;14177;51.520;6.764;2023-12-20T01:14:06;13.38;;;5.45;;
26502;SDS011;14177;51.520;6.764;2023-12-20T01:16:33;9.88;;;4.25;;
26502;SDS011;14177;51.520;6.764;2023-12-20T01:19:00;11.32;;;4.68;;
26502;SDS011;14177;51.520;6.764;2023-12-20T01:21:27;14.70;;;4.93;;
26502;SDS011;14177;51.520;6.764;2023-12-20T01:23:54;14.82;;;5.22;;
26502;SDS011;14177;51.520;6.764;2023-12-20T01:26:20;12.50;;;5.43;;
26502;SDS011;14177;51.520;6.764;2023-12-20T01:28:47;10.23;;;5.32;;
26502;SDS011;14177;51.520;6.764;2023-12-20T01:31:14;12.20;;;5.35;;
26502;SDS011;14177;51.520;6.764;2023-12-20T01:33:41;10.48;;;5.60;;
26502;SDS011;14177;51.520;6.764;2023-12-20T01:36:08;10.93;;;5.20;;
26502;SDS011;14177;51.520;6.764;2023-12-20T01:38:35;13.52;;;4.70;;
26502;SDS011;14177;51.520;6.764;2023-12-20T01:41:02;14.48;;;4.82;;
26502;SDS011;14177;51.520;6.764;2023-12-20T01:43:30;12.40;;;6.07;;
26502;SDS011;14177;51.520;6.764;2023-12-20T01:46:06;13.57;;;5.38;;
26502;SDS011;14177;51.520;6.764;2023-12-20T01:48:33;16.17;;;4.82;;
26502;SDS011;14177;51.520;6.764;2023-12-20T01:51:02;9.32;;;4.22;;
26502;SDS011;14177;51.520;6.764;2023-12-20T01:53:29;14.52;;;4.78;;
26502;SDS011;14177;51.520;6.764;2023-12-20T01:55:59;16.20;;;4.07;;
26502;SDS011;14177;51.520;6.764;2023-12-20T01:58:27;11.80;;;4.45;;
26502;SDS011;14177;51.520;6.764;2023-12-20T02:00:55;8.93;;;4.03;;
26502;SDS011;14177;51.520;6.764;2023-12-20T02:03:23;10.13;;;3.85;;
26502;SDS011;14177;51.520;6.764;2023-12-20T02:05:51;13.32;;;4.32;;
26502;SDS011;14177;51.520;6.764;2023-12-20T02:08:19;15.02;;;4.28;;
26502;SDS011;14177;51.520;6.764;2023-12-20T02:10:46;13.55;;;4.38;;
26502;SDS011;14177;51.520;6.764;2023-12-20T02:13:13;17.08;;;5.10;;
26502;SDS011;14177;51.520;6.764;2023-12-20T02:15:40;12.52;;;4.82;;
26502;SDS011;14177;51.520;6.764;2023-12-20T02:18:10;13.30;;;4.60;;
26502;SDS011;14177;51.520;6.764;2023-12-20T02:20:40;12.23;;;5.20;;
26502;SDS011;14177;51.520;6.764;2023-12-20T02:23:07;13.23;;;5.80;;
26502;SDS011;14177;51.520;6.764;2023-12-20T02:25:34;9.85;;;4.75;;
26502;SDS011;14177;51.520;6.764;2023-12-20T02:28:01;11.38;;;4.75;;
26502;SDS011;14177;51.520;6.764;2023-12-20T02:30:29;20.52;;;5.55;;
26502;SDS011;14177;51.520;6.764;2023-12-20T02:32:56;17.63;;;5.22;;
26502;SDS011;14177;51.520;6.764;2023-12-20T02:35:23;15.57;;;5.40;;
26502;SDS011;14177;51.520;6.764;2023-12-20T02:37:51;16.88;;;4.60;;
26502;SDS011;14177;51.520;6.764;2023-12-20T02:40:18;17.15;;;5.00;;
26502;SDS011;14177;51.520;6.764;2023-12-20T02:42:45;10.43;;;4.20;;
26502;SDS011;14177;51.520;6.764;2023-12-20T02:45:12;16.52;;;5.20;;
26502;SDS011;14177;51.520;6.764;2023-12-20T02:47:39;16.92;;;5.10;;
26502;SDS011;14177;51.520;6.764;2023-12-20T02:50:06;12.70;;;4.80;;
26502;SDS011;14177;51.520;6.764;2023-12-20T02:52:33;15.05;;;4.78;;
26502;SDS011;14177;51.520;6.764;2023-12-20T02:55:00;10.18;;;3.83;;
26502;SDS011;14177;51.520;6.764;2023-12-20T02:57:27;8.98;;;3.70;;
26502;SDS011;14177;51.520;6.764;2023-12-20T02:59:54;12.70;;;4.05;;
26502;SDS011;14177;51.520;6.764;2023-12-20T03:02:21;15.00;;;4.05;;
26502;SDS011;14177;51.520;6.764;2023-12-20T03:04:48;8.27;;;3.38;;
26502;SDS011;14177;51.520;6.764;2023-12-20T03:07:15;11.73;;;4.20;;
26502;SDS011;14177;51.520;6.764;2023-12-20T03:09:42;13.93;;;3.60;;
26502;SDS011;14177;51.520;6.764;2023-12-20T03:12:29;11.52;;;2.95;;
26502;SDS011;14177;51.520;6.764;2023-12-20T03:14:56;8.35;;;3.00;;
26502;SDS011;14177;51.520;6.764;2023-12-20T03:17:23;12.18;;;3.10;;
26502;SDS011;14177;51.520;6.764;2023-12-20T03:19:50;15.45;;;3.03;;
26502;SDS011;14177;51.520;6.764;2023-12-20T03:22:17;14.60;;;3.97;;
26502;SDS011;14177;51.520;6.764;2023-12-20T03:24:44;8.18;;;2.28;;
26502;SDS011;14177;51.520;6.764;2023-12-20T03:27:10;13.57;;;2.58;;
26502;SDS011;14177;51.520;6.764;2023-12-20T03:29:37;9.60;;;2.35;;
26502;SDS011;14177;51.520;6.764;2023-12-20T03:32:04;12.25;;;3.17;;
26502;SDS011;14177;51.520;6.764;2023-12-20T03:34:32;9.70;;;2.90;;
26502;SDS011;14177;51.520;6.764;2023-12-20T03:36:59;10.10;;;2.38;;
26502;SDS011;14177;51.520;6.764;2023-12-20T03:39:26;9.38;;;2.80;;
26502;SDS011;14177;51.520;6.764;2023-12-20T03:41:53;11.77;;;2.28;;
26502;SDS011;14177;51.520;6.764;2023-12-20T03:44:20;13.82;;;3.00;;
26502;SDS011;14177;51.520;6.764;2023-12-20T03:46:47;12.48;;;2.50;;
26502;SDS011;14177;51.520;6.764;2023-12-20T03:49:15;16.15;;;2.38;;
26502;SDS011;14177;51.520;6.764;2023-12-20T03:51:42;15.02;;;2.58;;
26502;SDS011;14177;51.520;6.764;2023-12-20T03:54:09;12.68;;;2.67;;
26502;SDS011;14177;51.520;6.764;2023-12-20T03:56:36;8.63;;;2.28;;
26502;SDS011;14177;51.520;6.764;2023-12-20T03:59:03;7.32;;;2.05;;
26502;SDS011;14177;51.520;6.764;2023-12-20T04:01:30;7.60;;;1.92;;
26502;SDS011;14177;51.520;6.764;2023-12-20T04:03:57;6.85;;;2.08;;
26502;SDS011;14177;51.520;6.764;2023-12-20T04:06:24;13.57;;;2.78;;
26502;SDS011;14177;51.520;6.764;2023-12-20T04:08:51;13.60;;;3.00;;
26502;SDS011;14177;51.520;6.764;2023-12-20T04:11:18;13.48;;;2.63;;
26502;SDS011;14177;51.520;6.764;2023-12-20T04:13:45;9.68;;;2.47;;
26502;SDS011;14177;51.520;6.764;2023-12-20T04:16:12;10.00;;;2.35;;
26502;SDS011;14177;51.520;6.764;2023-12-20T04:18:39;10.80;;;2.70;;
26502;SDS011;14177;51.520;6.764;2023-12-20T04:21:06;15.27;;;2.53;;
26502;SDS011;14177;51.520;6.764;2023-12-20T04:23:33;17.00;;;2.97;;
26502;SDS011;14177;51.520;6.764;2023-12-20T04:26:00;12.80;;;2.38;;
26502;SDS011;14177;51.520;6.764;2023-12-20T04:28:27;11.40;;;2.08;;
26502;SDS011;14177;51.520;6.764;2023-12-20T04:30:56;8.70;;;2.95;;
26502;SDS011;14177;51.520;6.764;2023-12-20T04:33:23;9.20;;;2.40;;
26502;SDS011;14177;51.520;6.764;2023-12-20T04:35:50;12.98;;;2.20;;
26502;SDS011;14177;51.520;6.764;2023-12-20T04:38:17;7.25;;;2.40;;
26502;SDS011;14177;51.520;6.764;2023-12-20T04:40:44;13.18;;;2.65;;
26502;SDS011;14177;51.520;6.764;2023-12-20T04:43:11;8.60;;;2.08;;
26502;SDS011;14177;51.520;6.764;2023-12-20T04:45:38;9.27;;;2.65;;
26502;SDS011;14177;51.520;6.764;2023-12-20T04:48:05;9.10;;;3.00;;
26502;SDS011;14177;51.520;6.764;2023-12-20T04:50:33;12.93;;;3.42;;
26502;SDS011;14177;51.520;6.764;2023-12-20T04:53:00;9.38;;;2.55;;
26502;SDS011;14177;51.520;6.764;2023-12-20T04:55:27;10.25;;;2.70;;
26502;SDS011;14177;51.520;6.764;2023-12-20T04:57:54;12.18;;;2.70;;
26502;SDS011;14177;51.520;6.764;2023-12-20T05:00:22;12.57;;;3.22;;
26502;SDS011;14177;51.520;6.764;2023-12-20T05:02:50;9.25;;;2.78;;
26502;SDS011;14177;51.520;6.764;2023-12-20T05:05:20;12.90;;;2.47;;
26502;SDS011;14177;51.520;6.764;2023-12-20T05:07:56;18.08;;;3.60;;
26502;SDS011;14177;51.520;6.764;2023-12-20T05:10:28;14.82;;;2.88;;
26502;SDS011;14177;51.520;6.764;2023-12-20T05:13:15;15.80;;;2.90;;
26502;SDS011;14177;51.520;6.764;2023-12-20T05:16:11;12.90;;;3.20;;
26502;SDS011;14177;51.520;6.764;2023-12-20T05:18:48;13.40;;;2.78;;
26502;SDS011;14177;51.520;6.764;2023-12-20T05:21:24;15.43;;;3.58;;
26502;SDS011;14177;51.520;6.764;2023-12-20T05:23:57;9.90;;;3.00;;
26502;SDS011;14177;51.520;6.764;2023-12-20T05:29:07;14.40;;;2.85;;
26502;SDS011;14177;51.520;6.764;2023-12-20T05:31:55;13.07;;;3.05;;
26502;SDS011;14177;51.520;6.764;2023-12-20T05:34:29;14.57;;;3.30;;
26502;SDS011;14177;51.520;6.764;2023-12-20T05:37:13;9.82;;;2.88;;
26502;SDS011;14177;51.520;6.764;2023-12-20T05:39:56;13.23;;;4.05;;
26502;SDS011;14177;51.520;6.764;2023-12-20T05:42:46;11.73;;;3.08;;
26502;SDS011;14177;51.520;6.764;2023-12-20T05:45:28;13.55;;;4.55;;
26502;SDS011;14177;51.520;6.764;2023-12-20T05:48:31;15.38;;;4.03;;
26502;SDS011;14177;51.520;6.764;2023-12-20T05:51:04;10.85;;;3.33;;
26502;SDS011;14177;51.520;6.764;2023-12-20T05:53:42;8.48;;;3.28;;
26502;SDS011;14177;51.520;6.764;2023-12-20T05:56:14;20.40;;;4.13;;
26502;SDS011;14177;51.520;6.764;2023-12-20T05:58:41;9.45;;;3.45;;
26502;SDS011;14177;51.520;6.764;2023-12-20T06:01:08;12.05;;;3.75;;
26502;SDS011;14177;51.520;6.764;2023-12-20T06:03:35;11.15;;;3.38;;
26502;SDS011;14177;51.520;6.764;2023-12-20T06:06:06;13.98;;;4.10;;
26502;SDS011;14177;51.520;6.764;2023-12-20T06:08:42;20.10;;;4.43;;
26502;SDS011;14177;51.520;6.764;2023-12-20T06:11:10;11.73;;;3.72;;
26502;SDS011;14177;51.520;6.764;2023-12-20T06:13:38;19.48;;;4.00;;
26502;SDS011;14177;51.520;6.764;2023-12-20T06:16:05;19.90;;;5.65;;
26502;SDS011;14177;51.520;6.764;2023-12-20T06:18:36;12.73;;;3.95;;
26502;SDS011;14177;51.520;6.764;2023-12-20T06:21:04;15.30;;;3.78;;
26502;SDS011;14177;51.520;6.764;2023-12-20T06:23:31;11.20;;;3.83;;
26502;SDS011;14177;51.520;6.764;2023-12-20T06:25:58;9.50;;;3.38;;
26502;SDS011;14177;51.520;6.764;2023-12-20T06:28:25;12.48;;;3.05;;
26502;SDS011;14177;51.520;6.764;2023-12-20T06:30:52;14.68;;;3.67;;
26502;SDS011;14177;51.520;6.764;2023-12-20T06:33:21;11.38;;;3.90;;
26502;SDS011;14177;51.520;6.764;2023-12-20T06:35:49;14.07;;;4.22;;
26502;SDS011;14177;51.520;6.764;2023-12-20T06:38:17;18.38;;;4.35;;
26502;SDS011;14177;51.520;6.764;2023-12-20T06:40:45;14.73;;;4.30;;
26502;SDS011;14177;51.520;6.764;2023-12-20T06:43:13;15.25;;;4.18;;
26502;SDS011;14177;51.520;6.764;2023-12-20T06:45:58;17.70;;;4.00;;
26502;SDS011;14177;51.520;6.764;2023-12-20T06:48:26;10.88;;;4.05;;
26502;SDS011;14177;51.520;6.764;2023-12-20T06:50:53;17.63;;;4.53;;
26502;SDS011;14177;51.520;6.764;2023-12-20T06:53:21;11.43;;;3.72;;
26502;SDS011;14177;51.520;6.764;2023-12-20T06:55:48;14.57;;;4.35;;
26502;SDS011;14177;51.520;6.764;2023-12-20T06:58:15;12.57;;;3.78;;
26502;SDS011;14177;51.520;6.764;2023-12-20T07:00:42;12.82;;;4.03;;
26502;SDS011;14177;51.520;6.764;2023-12-20T07:03:10;10.18;;;3.55;;
26502;SDS011;14177;51.520;6.764;2023-12-20T07:05:37;12.63;;;3.80;;
26502;SDS011;14177;51.520;6.764;2023-12-20T07:08:05;10.10;;;3.58;;
26502;SDS011;14177;51.520;6.764;2023-12-20T07:10:33;23.08;;;4.00;;
26502;SDS011;14177;51.520;6.764;2023-12-20T07:13:00;18.90;;;3.55;;
26502;SDS011;14177;51.520;6.764;2023-12-20T07:15:27;13.55;;;3.28;;
26502;SDS011;14177;51.520;6.764;2023-12-20T07:17:56;8.75;;;3.08;;
26502;SDS011;14177;51.520;6.764;2023-12-20T07:20:22;19.40;;;4.03;;
26502;SDS011;14177;51.520;6.764;2023-12-20T07:22:49;9.07;;;2.83;;
26502;SDS011;14177;51.520;6.764;2023-12-20T07:25:16;12.50;;;3.28;;
26502;SDS011;14177;51.520;6.764;2023-12-20T07:27:44;12.68;;;3.38;;
26502;SDS011;14177;51.520;6.764;2023-12-20T07:30:11;15.10;;;3.75;;
26502;SDS011;14177;51.520;6.764;2023-12-20T07:32:38;14.57;;;3.65;;
26502;SDS011;14177;51.520;6.764;2023-12-20T07:35:06;9.20;;;3.05;;
26502;SDS011;14177;51.520;6.764;2023-12-20T07:37:34;11.23;;;3.05;;
26502;SDS011;14177;51.520;6.764;2023-12-20T07:40:01;11.27;;;3.75;;
26502;SDS011;14177;51.520;6.764;2023-12-20T07:42:29;13.98;;;3.05;;
26502;SDS011;14177;51.520;6.764;2023-12-20T07:44:56;12.05;;;3.35;;
26502;SDS011;14177;51.520;6.764;2023-12-20T07:47:23;17.90;;;3.55;;
26502;SDS011;14177;51.520;6.764;2023-12-20T07:49:51;13.93;;;4.30;;
26502;SDS011;14177;51.520;6.764;2023-12-20T07:52:19;10.00;;;3.10;;
26502;SDS011;14177;51.520;6.764;2023-12-20T07:54:49;11.25;;;3.13;;
26502;SDS011;14177;51.520;6.764;2023-12-20T07:57:16;14.00;;;3.70;;
26502;SDS011;14177;51.520;6.764;2023-12-20T07:59:43;16.70;;;3.15;;
26502;SDS011;14177;51.520;6.764;2023-12-20T08:02:11;14.27;;;3.17;;
26502;SDS011;14177;51.520;6.764;2023-12-20T08:04:38;17.65;;;3.60;;
26502;SDS011;14177;51.520;6.764;2023-12-20T08:07:05;14.73;;;3.95;;
26502;SDS011;14177;51.520;6.764;2023-12-20T08:09:32;11.70;;;3.30;;
26502;SDS011;14177;51.520;6.764;2023-12-20T08:12:00;11.77;;;3.17;;
26502;SDS011;14177;51.520;6.764;2023-12-20T08:14:27;10.68;;;3.58;;
26502;SDS011;14177;51.520;6.764;2023-12-20T08:16:54;9.90;;;2.78;;
26502;SDS011;14177;51.520;6.764;2023-12-20T08:19:21;12.07;;;3.30;;
26502;SDS011;14177;51.520;6.764;2023-12-20T08:21:48;9.70;;;2.97;;
26502;SDS011;14177;51.520;6.764;2023-12-20T08:24:15;13.80;;;3.30;;
26502;SDS011;14177;51.520;6.764;2023-12-20T08:26:42;12.98;;;3.20;;
26502;SDS011;14177;51.520;6.764;2023-12-20T08:29:09;13.88;;;3.85;;
26502;SDS011;14177;51.520;6.764;2023-12-20T08:31:38;11.23;;;2.75;;
26502;SDS011;14177;51.520;6.764;2023-12-20T08:34:05;11.05;;;2.85;;
26502;SDS011;14177;51.520;6.764;2023-12-20T08:36:34;7.78;;;2.53;;
26502;SDS011;14177;51.520;6.764;2023-12-20T08:39:01;16.98;;;2.53;;
26502;SDS011;14177;51.520;6.764;2023-12-20T08:41:29;15.98;;;3.22;;
26502;SDS011;14177;51.520;6.764;2023-12-20T08:43:57;14.88;;;3.58;;
26502;SDS011;14177;51.520;6.764;2023-12-20T08:46:23;12.07;;;2.97;;
26502;SDS011;14177;51.520;6.764;2023-12-20T08:48:51;12.38;;;3.20;;
26502;SDS011;14177;51.520;6.764;2023-12-20T08:51:18;7.95;;;3.13;;
26502;SDS011;14177;51.520;6.764;2023-12-20T08:53:45;12.93;;;3.35;;
26502;SDS011;14177;51.520;6.764;2023-12-20T08:56:14;9.93;;;2.92;;
26502;SDS011;14177;51.520;6.764;2023-12-20T08:58:41;8.52;;;2.47;;
26502;SDS011;14177;51.520;6.764;2023-12-20T09:01:09;10.30;;;2.55;;
26502;SDS011;14177;51.520;6.764;2023-12-20T09:03:36;12.25;;;3.55;;
26502;SDS011;14177;51.520;6.764;2023-12-20T09:06:03;15.82;;;2.95;;
26502;SDS011;14177;51.520;6.764;2023-12-20T09:08:31;16.25;;;3.15;;
26502;SDS011;14177;51.520;6.764;2023-12-20T09:10:59;11.30;;;2.55;;
26502;SDS011;14177;51.520;6.764;2023-12-20T09:13:27;17.50;;;2.97;;
26502;SDS011;14177;51.520;6.764;2023-12-20T09:15:55;16.23;;;2.88;;
26502;SDS011;14177;51.520;6.764;2023-12-20T09:18:23;7.07;;;2.70;;
26502;SDS011;14177;51.520;6.764;2023-12-20T09:20:51;15.38;;;3.28;;
26502;SDS011;14177;51.520;6.764;2023-12-20T09:23:18;11.73;;;2.78;;
26502;SDS011;14177;51.520;6.764;2023-12-20T09:25:45;10.73;;;3.63;;
26502;SDS011;14177;51.520;6.764;2023-12-20T09:28:12;17.88;;;3.30;;
26502;SDS011;14177;51.520;6.764;2023-12-20T09:30:39;11.45;;;3.03;;
26502;SDS011;14177;51.520;6.764;2023-12-20T09:33:07;16.38;;;3.75;;
26502;SDS011;14177;51.520;6.764;2023-12-20T09:35:34;14.63;;;3.17;;
26502;SDS011;14177;51.520;6.764;2023-12-20T09:38:02;19.55;;;3.80;;
26502;SDS011;14177;51.520;6.764;2023-12-20T09:40:29;10.18;;;3.20;;
26502;SDS011;14177;51.520;6.764;2023-12-20T09:43:03;13.57;;;2.55;;
26502;SDS011;14177;51.520;6.764;2023-12-20T09:45:46;15.10;;;3.08;;
26502;SDS011;14177;51.520;6.764;2023-12-20T09:48:18;14.85;;;2.65;;
26502;SDS011;14177;51.520;6.764;2023-12-20T09:50:49;12.00;;;3.67;;
26502;SDS011;14177;51.520;6.764;2023-12-20T09:53:26;10.00;;;3.10;;
26502;SDS011;14177;51.520;6.764;2023-12-20T09:55:58;11.77;;;2.90;;
26502;SDS011;14177;51.520;6.764;2023-12-20T09:58:39;11.63;;;2.97;;
26502;SDS011;14177;51.520;6.764;2023-12-20T10:01:12;11.00;;;2.70;;
26502;SDS011;14177;51.520;6.764;2023-12-20T10:03:49;12.57;;;3.05;;
26502;SDS011;14177;51.520;6.764;2023-12-20T10:06:40;11.93;;;3.50;;
26502;SDS011;14177;51.520;6.764;2023-12-20T10:09:11;9.63;;;3.17;;
26502;SDS011;14177;51.520;6.764;2023-12-20T10:11:43;16.98;;;3.22;;
26502;SDS011;14177;51.520;6.764;2023-12-20T10:18:15;12.40;;;3.22;;
26502;SDS011;14177;51.520;6.764;2023-12-20T10:21:12;12.13;;;2.75;;
26502;SDS011;14177;51.520;6.764;2023-12-20T10:23:58;8.25;;;2.25;;
26502;SDS011;14177;51.520;6.764;2023-12-20T10:26:47;6.32;;;2.28;;
26502;SDS011;14177;51.520;6.764;2023-12-20T10:29:40;13.77;;;3.38;;
26502;SDS011;14177;51.520;6.764;2023-12-20T10:32:27;10.35;;;2.88;;
26502;SDS011;14177;51.520;6.764;2023-12-20T10:35:06;11.05;;;3.30;;
26502;SDS011;14177;51.520;6.764;2023-12-20T10:38:10;8.32;;;2.58;;
26502;SDS011;14177;51.520;6.764;2023-12-20T10:41:19;8.88;;;2.50;;
26502;SDS011;14177;51.520;6.764;2023-12-20T10:47:12;16.92;;;3.20;;
26502;SDS011;14177;51.520;6.764;2023-12-20T10:49:45;8.50;;;3.35;;
26502;SDS011;14177;51.520;6.764;2023-12-20T10:52:19;13.38;;;3.25;;
26502;SDS011;14177;51.520;6.764;2023-12-20T10:55:25;7.15;;;2.47;;
26502;SDS011;14177;51.520;6.764;2023-12-20T10:58:09;9.00;;;2.70;;
26502;SDS011;14177;51.520;6.764;2023-12-20T11:00:57;13.05;;;2.95;;
26502;SDS011;14177;51.520;6.764;2023-12-20T11:03:54;13.52;;;3.28;;
26502;SDS011;14177;51.520;6.764;2023-12-20T11:06:47;9.98;;;3.03;;
26502;SDS011;14177;51.520;6.764;2023-12-20T11:09:33;12.80;;;2.95;;
26502;SDS011;14177;51.520;6.764;2023-12-20T11:12:47;11.50;;;3.17;;
26502;SDS011;14177;51.520;6.764;2023-12-20T11:15:43;13.63;;;3.30;;
26502;SDS011;14177;51.520;6.764;2023-12-20T11:18:30;13.40;;;3.90;;
26502;SDS011;14177;51.520;6.764;2023-12-20T11:21:10;10.32;;;2.70;;
26502;SDS011;14177;51.520;6.764;2023-12-20T11:23:50;14.02;;;3.97;;
26502;SDS011;14177;51.520;6.764;2023-12-20T11:26:28;8.02;;;2.72;;
26502;SDS011;14177;51.520;6.764;2023-12-20T11:29:32;15.93;;;3.72;;
26502;SDS011;14177;51.520;6.764;2023-12-20T11:38:13;8.82;;;3.47;;
26502;SDS011;14177;51.520;6.764;2023-12-20T11:40:59;15.43;;;3.65;;
26502;SDS011;14177;51.520;6.764;2023-12-20T11:43:50;15.07;;;2.80;;
26502;SDS011;14177;51.520;6.764;2023-12-20T11:46:26;15.80;;;3.85;;
26502;SDS011;14177;51.520;6.764;2023-12-20T11:49:00;9.20;;;3.28;;
26502;SDS011;14177;51.520;6.764;2023-12-20T11:51:35;11.82;;;3.50;;
26502;SDS011;14177;51.520;6.764;2023-12-20T11:54:15;10.85;;;3.22;;
26502;SDS011;14177;51.520;6.764;2023-12-20T11:56:48;12.63;;;2.78;;
26502;SDS011;14177;51.520;6.764;2023-12-20T11:59:21;17.48;;;3.90;;
26502;SDS011;14177;51.520;6.764;2023-12-20T12:02:14;8.35;;;3.38;;
26502;SDS011;14177;51.520;6.764;2023-12-20T12:05:05;16.92;;;3.30;;
26502;SDS011;14177;51.520;6.764;2023-12-20T12:07:51;12.85;;;4.07;;
26502;SDS011;14177;51.520;6.764;2023-12-20T12:10:56;17.65;;;3.85;;
26502;SDS011;14177;51.520;6.764;2023-12-20T12:13:30;15.63;;;3.30;;
26502;SDS011;14177;51.520;6.764;2023-12-20T12:16:24;9.75;;;3.65;;
26502;SDS011;14177;51.520;6.764;2023-12-20T12:18:56;15.35;;;3.40;;
26502;SDS011;14177;51.520;6.764;2023-12-20T12:21:28;15.25;;;3.55;;
26502;SDS011;14177;51.520;6.764;2023-12-20T12:24:07;11.13;;;3.50;;
26502;SDS011;14177;51.520;6.764;2023-12-20T12:26:49;14.70;;;3.35;;
26502;SDS011;14177;51.520;6.764;2023-12-20T12:33:28;9.98;;;3.63;;
26502;SDS011;14177;51.520;6.764;2023-12-20T12:36:07;17.65;;;4.00;;
26502;SDS011;14177;51.520;6.764;2023-12-20T12:39:02;8.75;;;2.80;;
26502;SDS011;14177;51.520;6.764;2023-12-20T12:41:36;10.57;;;3.28;;
26502;SDS011;14177;51.520;6.764;2023-12-20T12:44:10;10.02;;;3.10;;
26502;SDS011;14177;51.520;6.764;2023-12-20T12:46:48;15.65;;;3.97;;
26502;SDS011;14177;51.520;6.764;2023-12-20T12:49:32;11.07;;;3.13;;
26502;SDS011;14177;51.520;6.764;2023-12-20T12:52:02;5.80;;;2.65;;
26502;SDS011;14177;51.520;6.764;2023-12-20T12:54:39;18.90;;;4.20;;
26502;SDS011;14177;51.520;6.764;2023-12-20T12:57:22;12.10;;;3.28;;
26502;SDS011;14177;51.520;6.764;2023-12-20T13:00:07;10.60;;;2.80;;
26502;SDS011;14177;51.520;6.764;2023-12-20T13:02:42;16.20;;;3.03;;
26502;SDS011;14177;51.520;6.764;2023-12-20T13:05:27;11.98;;;3.08;;
26502;SDS011;14177;51.520;6.764;2023-12-20T13:08:16;11.07;;;3.53;;
26502;SDS011;14177;51.520;6.764;2023-12-20T13:10:58;16.33;;;3.65;;
26502;SDS011;14177;51.520;6.764;2023-12-20T13:13:46;16.70;;;3.90;;
26502;SDS011;14177;51.520;6.764;2023-12-20T13:17:01;9.40;;;3.13;;
26502;SDS011;14177;51.520;6.764;2023-12-20T13:20:04;8.75;;;3.00;;
26502;SDS011;14177;51.520;6.764;2023-12-20T13:23:10;10.77;;;3.42;;
26502;SDS011;14177;51.520;6.764;2023-12-20T13:26:01;12.90;;;4.05;;
26502;SDS011;14177;51.520;6.764;2023-12-20T13:28:50;15.55;;;4.32;;
26502;SDS011;14177;51.520;6.764;2023-12-20T13:31:29;11.88;;;3.85;;
26502;SDS011;14177;51.520;6.764;2023-12-20T13:34:06;12.05;;;4.13;;
26502;SDS011;14177;51.520;6.764;2023-12-20T13:36:38;13.68;;;3.80;;
26502;SDS011;14177;51.520;6.764;2023-12-20T13:39:28;15.43;;;3.88;;
26502;SDS011;14177;51.520;6.764;2023-12-20T13:41:58;11.75;;;3.75;;
26502;SDS011;14177;51.520;6.764;2023-12-20T13:44:34;15.68;;;4.10;;
26502;SDS011;14177;51.520;6.764;2023-12-20T13:47:10;13.65;;;4.60;;
26502;SDS011;14177;51.520;6.764;2023-12-20T13:49:48;10.88;;;3.45;;
26502;SDS011;14177;51.520;6.764;2023-12-20T13:52:40;14.38;;;4.50;;
26502;SDS011;14177;51.520;6.764;2023-12-20T13:55:20;10.02;;;3.25;;
26502;SDS011;14177;51.520;6.764;2023-12-20T13:58:02;13.82;;;4.78;;
26502;SDS011;14177;51.520;6.764;2023-12-20T14:00:52;12.85;;;4.18;;
26502;SDS011;14177;51.520;6.764;2023-12-20T14:03:39;16.40;;;4.65;;
26502;SDS011;14177;51.520;6.764;2023-12-20T14:06:30;10.27;;;4.28;;
26502;SDS011;14177;51.520;6.764;2023-12-20T14:09:12;9.13;;;3.85;;
26502;SDS011;14177;51.520;6.764;2023-12-20T14:11:45;11.18;;;4.00;;
26502;SDS011;14177;51.520;6.764;2023-12-20T14:14:14;12.20;;;4.50;;
26502;SDS011;14177;51.520;6.764;2023-12-20T14:16:42;15.13;;;4.57;;
26502;SDS011;14177;51.520;6.764;2023-12-20T14:19:12;13.93;;;4.53;;
26502;SDS011;14177;51.520;6.764;2023-12-20T14:21:39;14.15;;;3.97;;
26502;SDS011;14177;51.520;6.764;2023-12-20T14:24:06;8.80;;;4.13;;
26502;SDS011;14177;51.520;6.764;2023-12-20T14:26:33;16.77;;;4.78;;
26502;SDS011;14177;51.520;6.764;2023-12-20T14:29:01;14.90;;;4.57;;
26502;SDS011;14177;51.520;6.764;2023-12-20T14:31:28;11.15;;;4.45;;
26502;SDS011;14177;51.520;6.764;2023-12-20T14:33:55;10.73;;;3.95;;
26502;SDS011;14177;51.520;6.764;2023-12-20T14:36:22;14.77;;;5.00;;
26502;SDS011;14177;51.520;6.764;2023-12-20T14:38:49;14.05;;;4.68;;
26502;SDS011;14177;51.520;6.764;2023-12-20T14:41:17;14.25;;;4.53;;
26502;SDS011;14177;51.520;6.764;2023-12-20T14:43:45;8.88;;;5.00;;
26502;SDS011;14177;51.520;6.764;2023-12-20T14:46:13;17.00;;;5.22;;
26502;SDS011;14177;51.520;6.764;2023-12-20T14:48:41;17.48;;;5.10;;
26502;SDS011;14177;51.520;6.764;2023-12-20T14:51:08;18.42;;;5.10;;
26502;SDS011;14177;51.520;6.764;2023-12-20T14:53:37;11.77;;;4.72;;
26502;SDS011;14177;51.520;6.764;2023-12-20T14:56:04;13.35;;;5.28;;
26502;SDS011;14177;51.520;6.764;2023-12-20T14:58:32;16.95;;;4.90;;
26502;SDS011;14177;51.520;6.764;2023-12-20T15:01:00;11.45;;;4.30;;
26502;SDS011;14177;51.520;6.764;2023-12-20T15:03:27;13.70;;;4.22;;
26502;SDS011;14177;51.520;6.764;2023-12-20T15:05:55;14.73;;;4.43;;
26502;SDS011;14177;51.520;6.764;2023-12-20T15:08:25;18.83;;;4.95;;
26502;SDS011;14177;51.520;6.764;2023-12-20T15:10:52;13.40;;;4.55;;
26502;SDS011;14177;51.520;6.764;2023-12-20T15:13:19;12.93;;;4.82;;
26502;SDS011;14177;51.520;6.764;2023-12-20T15:15:46;12.40;;;4.38;;
26502;SDS011;14177;51.520;6.764;2023-12-20T15:18:14;9.93;;;4.63;;
26502;SDS011;14177;51.520;6.764;2023-12-20T15:20:41;8.65;;;4.25;;
26502;SDS011;14177;51.520;6.764;2023-12-20T15:23:10;15.23;;;4.28;;
26502;SDS011;14177;51.520;6.764;2023-12-20T15:25:40;19.60;;;4.40;;